createdAt,value
2022-08-25T00:02:04.721Z,26.87
2022-08-25T00:04:35.229Z,27.25
2022-08-25T00:07:07.156Z,27.08
2022-08-25T00:09:35.709Z,26.31
2022-08-25T00:12:05.883Z,25.60
2022-08-25T00:14:36.970Z,25.06
2022-08-25T00:17:06.836Z,24.92
2022-08-25T00:19:38.475Z,25.66
2022-08-25T00:22:07.860Z,26.43
2022-08-25T00:24:36.189Z,26.91
2022-08-25T00:27:04.603Z,26.88
2022-08-25T00:29:33.333Z,26.17
2022-08-25T00:32:03.563Z,25.44
2022-08-25T00:34:39.506Z,25.03
2022-08-25T00:37:09.649Z,25.65
2022-08-25T00:39:40.095Z,26.17
2022-08-25T00:42:11.794Z,26.39
2022-08-25T00:44:45.118Z,26.53
2022-08-25T00:47:13.373Z,26.62
2022-08-25T00:49:55.358Z,26.72
2022-08-25T00:52:23.518Z,26.89
2022-08-25T00:55:03.140Z,26.61
2022-08-25T00:57:41.472Z,25.87
2022-08-25T01:00:26.241Z,25.17
2022-08-25T01:02:57.567Z,24.95
2022-08-25T01:05:27.086Z,25.58
2022-08-25T01:07:58.722Z,25.97
2022-08-25T01:10:29.127Z,26.20
2022-08-25T01:13:02.767Z,26.41
2022-08-25T01:15:32.730Z,26.62
2022-08-25T01:18:01.149Z,26.76
2022-08-25T01:20:32.636Z,26.66
2022-08-25T01:23:03.006Z,26.01
2022-08-25T01:25:49.921Z,25.30
2022-08-25T01:28:18.723Z,24.64
2022-08-25T01:30:46.986Z,24.48
2022-08-25T01:33:18.361Z,25.21
2022-08-25T01:35:47.260Z,25.91
2022-08-25T01:38:17.875Z,26.32
2022-08-25T01:40:45.953Z,26.58
2022-08-25T01:43:18.451Z,26.60
2022-08-25T01:45:48.216Z,25.85
2022-08-25T01:48:17.127Z,25.11
2022-08-25T01:50:45.312Z,24.79
2022-08-25T01:53:29.561Z,25.28
2022-08-25T01:56:15.764Z,25.78
2022-08-25T01:58:46.988Z,26.03
2022-08-25T02:01:18.963Z,26.13
2022-08-25T02:03:53.101Z,26.21
2022-08-25T02:06:28.808Z,26.36
2022-08-25T02:09:04.652Z,26.44
2022-08-25T02:11:37.147Z,25.75
2022-08-25T02:14:05.911Z,25.01
2022-08-25T02:16:37.090Z,24.45
2022-08-25T02:19:09.543Z,24.29
2022-08-25T02:21:38.284Z,25.15
2022-08-25T02:24:07.432Z,25.88
2022-08-25T02:26:37.262Z,26.17
2022-08-25T02:29:07.785Z,26.14
2022-08-25T02:31:39.319Z,25.44
2022-08-25T02:34:08.900Z,24.71
2022-08-25T02:36:38.491Z,24.38
2022-08-25T02:39:08.970Z,25.00
2022-08-25T02:41:38.929Z,25.63
2022-08-25T02:44:08.054Z,26.00
2022-08-25T02:46:39.404Z,26.25
2022-08-25T02:49:08.003Z,26.47
2022-08-25T02:51:36.627Z,26.49
2022-08-25T02:54:05.536Z,25.83
2022-08-25T02:56:33.954Z,25.07
2022-08-25T02:59:02.939Z,24.48
2022-08-25T03:01:32.730Z,24.30
2022-08-25T03:04:01.960Z,25.02
2022-08-25T03:06:30.620Z,25.59
2022-08-25T03:08:59.251Z,25.93
2022-08-25T03:11:28.448Z,26.18
2022-08-25T03:13:56.697Z,26.14
2022-08-25T03:16:28.165Z,25.45
2022-08-25T03:18:56.871Z,24.68
2022-08-25T03:21:26.919Z,24.29
2022-08-25T03:23:56.353Z,24.90
2022-08-25T03:26:43.130Z,25.45
2022-08-25T03:29:11.262Z,25.77
2022-08-25T03:31:39.449Z,25.83
2022-08-25T03:34:07.541Z,25.23
2022-08-25T03:36:35.756Z,24.51
2022-08-25T03:39:04.542Z,24.14
2022-08-25T03:41:33.651Z,24.78
2022-08-25T03:44:04.093Z,25.58
2022-08-25T03:46:35.479Z,26.09
2022-08-25T03:49:04.917Z,26.43
2022-08-25T03:51:37.301Z,26.51
2022-08-25T03:54:05.431Z,25.79
2022-08-25T03:56:34.095Z,24.98
2022-08-25T03:59:02.603Z,24.57
2022-08-25T04:01:30.657Z,25.22
2022-08-25T04:03:58.926Z,25.77
2022-08-25T04:06:27.110Z,26.07
2022-08-25T04:08:58.389Z,26.28
2022-08-25T04:11:27.382Z,26.44
2022-08-25T04:13:59.154Z,26.61
2022-08-25T04:16:31.595Z,26.93
2022-08-25T04:19:02.358Z,27.16
2022-08-25T04:21:32.012Z,26.71
2022-08-25T04:23:59.949Z,25.85
2022-08-25T04:26:34.683Z,25.32
2022-08-25T04:29:07.160Z,25.84
2022-08-25T04:31:39.512Z,26.49
2022-08-25T04:34:24.734Z,26.93
2022-08-25T04:36:56.072Z,27.21
2022-08-25T04:39:24.012Z,27.20
2022-08-25T04:41:52.119Z,26.51
2022-08-25T04:44:21.621Z,25.72
2022-08-25T04:46:50.042Z,25.35
2022-08-25T04:49:18.240Z,25.83
2022-08-25T04:51:47.160Z,26.37
2022-08-25T04:54:21.822Z,26.77
2022-08-25T04:56:54.500Z,27.09
2022-08-25T04:59:29.490Z,27.36
2022-08-25T05:02:04.506Z,27.44
2022-08-25T05:04:36.424Z,26.76
2022-08-25T05:07:04.938Z,25.99
2022-08-25T05:09:33.558Z,25.66
2022-08-25T05:12:10.534Z,26.35
2022-08-25T05:14:54.710Z,27.03
2022-08-25T05:17:23.993Z,27.35
2022-08-25T05:19:52.184Z,27.62
2022-08-25T05:22:20.306Z,27.67
2022-08-25T05:24:48.545Z,26.96
2022-08-25T05:27:17.213Z,26.17
2022-08-25T05:29:45.280Z,25.85
2022-08-25T05:32:13.339Z,26.56
2022-08-25T05:34:41.937Z,27.23
2022-08-25T05:37:12.146Z,27.67
2022-08-25T05:39:40.548Z,27.78
2022-08-25T05:42:08.488Z,27.12
2022-08-25T05:44:38.516Z,26.40
2022-08-25T05:47:07.744Z,26.10
2022-08-25T05:49:35.890Z,26.81
2022-08-25T05:52:04.360Z,27.46
2022-08-25T05:54:33.700Z,27.82
2022-08-25T05:57:01.681Z,27.90
2022-08-25T05:59:30.443Z,27.25
2022-08-25T06:02:17.586Z,26.48
2022-08-25T06:04:46.943Z,26.13
2022-08-25T06:07:14.939Z,26.85
2022-08-25T06:09:46.546Z,27.48
2022-08-25T06:12:15.151Z,27.91
2022-08-25T06:14:44.590Z,28.19
2022-08-25T06:17:14.645Z,28.21
2022-08-25T06:19:46.238Z,27.54
2022-08-25T06:22:14.253Z,26.78
2022-08-25T06:24:42.813Z,26.22
2022-08-25T06:27:13.322Z,26.08
2022-08-25T06:29:42.297Z,26.90
2022-08-25T06:32:10.605Z,27.60
2022-08-25T06:34:41.749Z,27.93
2022-08-25T06:37:09.811Z,28.18
2022-08-25T06:39:37.975Z,28.20
2022-08-25T06:42:06.196Z,27.54
2022-08-25T06:44:35.147Z,26.87
2022-08-25T06:47:03.260Z,26.57
2022-08-25T06:49:36.002Z,27.26
2022-08-25T06:52:04.789Z,28.01
2022-08-25T06:54:33.264Z,28.49
2022-08-25T06:57:01.741Z,28.59
2022-08-25T06:59:32.207Z,27.91
2022-08-25T07:02:03.299Z,27.17
2022-08-25T07:04:33.148Z,26.54
2022-08-25T07:07:04.860Z,26.29
2022-08-25T07:09:37.411Z,27.02
2022-08-25T07:12:10.001Z,27.74
2022-08-25T07:14:38.600Z,28.14
2022-08-25T07:17:12.619Z,28.29
2022-08-25T07:19:43.058Z,27.67
2022-08-25T07:22:12.044Z,26.89
2022-08-25T07:24:40.094Z,26.52
2022-08-25T07:27:08.185Z,27.19
2022-08-25T07:29:42.343Z,27.87
2022-08-25T07:32:10.983Z,28.29
2022-08-25T07:34:59.209Z,28.26
2022-08-25T07:40:38.373Z,26.76
2022-08-25T07:43:13.170Z,26.50
2022-08-25T07:45:49.550Z,27.27
2022-08-25T07:48:20.097Z,27.91
2022-08-25T07:50:49.505Z,28.14
2022-08-25T07:53:18.086Z,27.87
2022-08-25T07:55:47.377Z,27.16
2022-08-25T07:58:15.757Z,26.56
2022-08-25T08:00:48.058Z,26.29
2022-08-25T08:03:35.158Z,27.01
2022-08-25T08:06:09.691Z,27.87
2022-08-25T08:08:44.110Z,28.36
2022-08-25T08:11:21.493Z,28.46
2022-08-25T08:13:55.014Z,27.81
2022-08-25T08:16:30.386Z,27.23
2022-08-25T08:18:59.651Z,26.79
2022-08-25T08:21:32.648Z,26.69
2022-08-25T08:24:05.038Z,27.50
2022-08-25T08:26:57.686Z,28.33
2022-08-25T08:29:28.230Z,28.58
2022-08-25T08:31:56.860Z,28.02
2022-08-25T08:34:25.189Z,27.40
2022-08-25T08:36:57.824Z,26.87
2022-08-25T08:39:27.684Z,26.85
2022-08-25T08:42:19.926Z,27.74
2022-08-25T08:45:46.407Z,28.54
2022-08-25T08:49:19.688Z,28.52
2022-08-25T08:52:09.398Z,27.57
2022-08-25T08:54:41.159Z,27.01
2022-08-25T09:03:09.348Z,28.65
2022-08-25T09:05:50.420Z,28.90
2022-08-25T09:08:20.498Z,28.35
2022-08-25T09:11:01.575Z,27.84
2022-08-25T09:13:36.938Z,27.42
2022-08-25T09:16:34.945Z,27.17
2022-08-25T09:19:23.383Z,27.36
2022-08-25T09:22:33.668Z,28.42
2022-08-25T09:25:53.041Z,29.18
2022-08-25T09:28:39.810Z,28.98
2022-08-25T09:31:29.849Z,28.56
2022-08-25T09:34:01.108Z,28.26
2022-08-25T09:36:35.562Z,28.18
2022-08-25T09:39:06.841Z,28.22
2022-08-25T09:41:51.133Z,28.36
2022-08-25T09:44:26.229Z,28.55
2022-08-25T09:47:17.930Z,28.74
2022-08-25T09:50:00.259Z,28.97
2022-08-25T09:52:28.796Z,29.17
2022-08-25T09:54:59.723Z,29.34
2022-08-25T09:57:44.439Z,29.51
2022-08-25T10:00:21.558Z,29.77
2022-08-25T10:03:07.870Z,30.05
2022-08-25T10:05:41.470Z,30.25
2022-08-25T10:08:24.813Z,30.38
2022-08-25T10:10:57.574Z,30.47
2022-08-25T10:13:36.682Z,30.49
2022-08-25T10:16:34.574Z,30.46
2022-08-25T10:19:28.699Z,30.42
2022-08-25T10:22:10.902Z,30.38
2022-08-25T10:24:43.890Z,30.35
2022-08-25T10:27:30.677Z,30.36
2022-08-25T10:30:20.258Z,30.47
2022-08-25T10:33:33.118Z,30.62
2022-08-25T10:36:10.700Z,30.69
2022-08-25T10:38:58.822Z,30.81
2022-08-25T10:41:38.227Z,30.98
2022-08-25T10:44:36.866Z,31.14
2022-08-25T10:47:23.360Z,31.34
2022-08-25T10:49:56.240Z,31.45
2022-08-25T10:52:48.834Z,31.53
2022-08-25T10:55:20.859Z,31.62
2022-08-25T10:57:52.645Z,31.56
2022-08-25T11:00:23.651Z,31.55
2022-08-25T11:03:08.435Z,31.59
2022-08-25T11:06:05.747Z,31.54
2022-08-25T11:08:58.700Z,31.61
2022-08-25T11:12:00.021Z,31.67
2022-08-25T11:14:34.409Z,31.74
2022-08-25T11:17:10.240Z,31.66
2022-08-25T11:19:42.169Z,31.51
2022-08-25T11:22:22.477Z,31.36
2022-08-25T11:24:59.763Z,31.26
2022-08-25T11:27:59.921Z,31.24
2022-08-25T11:30:28.989Z,31.37
2022-08-25T11:32:57.135Z,31.49
2022-08-25T11:35:40.899Z,31.62
2022-08-25T11:38:37.850Z,31.72
2022-08-25T11:41:21.717Z,31.67
2022-08-25T11:44:10.336Z,31.68
2022-08-25T11:46:53.367Z,31.62
2022-08-25T11:49:53.947Z,31.61
2022-08-25T11:52:34.693Z,31.64
2022-08-25T11:55:13.956Z,31.54
2022-08-25T11:57:45.122Z,31.39
2022-08-25T12:04:47.139Z,31.13
2022-08-25T12:07:20.499Z,31.14
2022-08-25T12:10:09.171Z,31.18
2022-08-25T12:12:38.825Z,31.19
2022-08-25T12:15:21.166Z,31.25
2022-08-25T12:18:16.759Z,31.39
2022-08-25T12:20:52.723Z,31.59
2022-08-25T12:23:30.359Z,31.70
2022-08-25T12:26:06.453Z,31.92
2022-08-25T12:28:41.950Z,32.04
2022-08-25T12:31:30.472Z,32.11
2022-08-25T12:34:19.091Z,32.17
2022-08-25T12:36:56.318Z,32.36
2022-08-25T12:39:32.065Z,32.55
2022-08-25T12:42:06.767Z,32.75
2022-08-25T12:44:44.110Z,32.90
2022-08-25T12:47:27.318Z,33.04
2022-08-25T12:50:33.625Z,33.13
2022-08-25T12:53:16.082Z,33.30
2022-08-25T12:55:50.178Z,33.25
2022-08-25T12:58:18.212Z,33.07
2022-08-25T13:01:35.498Z,32.89
2022-08-25T13:04:19.727Z,32.82
2022-08-25T13:06:59.933Z,32.96
2022-08-25T13:09:50.810Z,33.24
2022-08-25T13:12:24.458Z,33.60
2022-08-25T13:14:54.775Z,33.86
2022-08-25T13:17:34.004Z,34.05
2022-08-25T13:20:23.542Z,34.26
2022-08-25T13:22:57.389Z,34.37
2022-08-25T13:25:37.072Z,34.26
2022-08-25T13:28:10.949Z,34.06
2022-08-25T13:30:40.042Z,33.87
2022-08-25T13:33:23.984Z,33.76
2022-08-25T13:36:14.313Z,33.55
2022-08-25T13:38:45.703Z,33.43
2022-08-25T13:41:23.693Z,33.54
2022-08-25T13:44:00.861Z,33.76
2022-08-25T13:46:30.789Z,34.07
2022-08-25T13:49:05.333Z,34.26
2022-08-25T13:51:34.971Z,34.32
2022-08-25T13:54:07.159Z,34.25
2022-08-25T13:56:40.947Z,34.26
2022-08-25T13:59:25.814Z,34.24
2022-08-25T14:01:55.342Z,34.13
2022-08-25T14:04:51.094Z,34.08
2022-08-25T14:07:25.553Z,34.37
2022-08-25T14:10:01.634Z,34.73
2022-08-25T14:12:47.743Z,35.21
2022-08-25T14:15:17.466Z,35.79
2022-08-25T14:18:00.640Z,36.25
2022-08-25T14:20:31.020Z,36.73
2022-08-25T14:23:12.929Z,37.15
2022-08-25T14:25:49.042Z,37.50
2022-08-25T14:28:21.769Z,37.61
2022-08-25T14:30:53.931Z,37.84
2022-08-25T14:33:25.332Z,38.04
2022-08-25T14:35:55.242Z,38.00
2022-08-25T14:38:23.360Z,37.94
2022-08-25T14:40:52.483Z,38.02
2022-08-25T14:43:24.006Z,38.00
2022-08-25T14:46:02.603Z,37.78
2022-08-25T14:48:37.238Z,37.42
2022-08-25T14:51:05.571Z,37.13
2022-08-25T14:53:33.967Z,36.99
2022-08-25T14:56:08.630Z,37.12
2022-08-25T14:58:48.541Z,37.66
2022-08-25T15:01:29.018Z,38.32
2022-08-25T15:04:05.776Z,38.92
2022-08-25T15:06:36.620Z,38.94
2022-08-25T15:09:11.739Z,38.52
2022-08-25T15:11:45.434Z,38.05
2022-08-25T15:14:18.958Z,38.23
2022-08-25T15:16:57.898Z,38.95
2022-08-25T15:19:27.079Z,39.71
2022-08-25T15:21:57.779Z,40.46
2022-08-25T15:24:28.324Z,40.79
2022-08-25T15:26:58.747Z,40.85
2022-08-25T15:29:30.288Z,41.16
2022-08-25T15:32:00.419Z,41.59
2022-08-25T15:34:29.695Z,41.96
2022-08-25T15:36:58.957Z,42.45
2022-08-25T15:39:27.910Z,42.91
2022-08-25T15:41:57.136Z,43.42
2022-08-25T15:44:29.524Z,43.87
2022-08-25T15:46:59.228Z,44.31
2022-08-25T15:49:29.936Z,44.73
2022-08-25T15:52:00.008Z,44.97
2022-08-25T15:54:29.024Z,45.07
2022-08-25T15:56:59.916Z,45.30
2022-08-25T15:59:28.727Z,45.57
2022-08-25T16:01:57.432Z,45.86
2022-08-25T16:04:27.589Z,46.04
2022-08-25T16:06:56.109Z,46.21
2022-08-25T16:09:24.351Z,46.42
2022-08-25T16:11:55.626Z,46.54
2022-08-25T16:14:27.722Z,46.54
2022-08-25T16:16:58.103Z,46.52
2022-08-25T16:19:30.054Z,46.48
2022-08-25T16:21:59.235Z,46.43
2022-08-25T16:24:28.394Z,46.34
2022-08-25T16:27:11.383Z,46.29
2022-08-25T16:29:42.964Z,46.21
2022-08-25T16:32:13.374Z,46.08
2022-08-25T16:34:42.014Z,45.94
2022-08-25T16:37:11.084Z,45.77
2022-08-25T16:39:44.090Z,45.58
2022-08-25T16:42:12.894Z,45.34
2022-08-25T16:44:41.850Z,45.00
2022-08-25T16:47:09.892Z,44.59
2022-08-25T16:49:43.009Z,44.07
2022-08-25T16:52:30.243Z,43.53
2022-08-25T16:55:14.407Z,42.92
2022-08-25T16:57:48.787Z,42.37
2022-08-25T17:00:21.932Z,41.86
2022-08-25T17:02:54.289Z,41.33
2022-08-25T17:05:22.222Z,40.57
2022-08-25T17:08:09.366Z,39.67
2022-08-25T17:10:41.407Z,38.70
2022-08-25T17:13:11.809Z,37.88
2022-08-25T17:15:47.005Z,37.13
2022-08-25T17:18:15.540Z,36.44
2022-08-25T17:20:45.299Z,35.81
2022-08-25T17:23:13.372Z,35.23
2022-08-25T17:25:42.953Z,34.67
2022-08-25T17:28:12.808Z,34.15
2022-08-25T17:30:41.668Z,33.66
2022-08-25T17:33:09.628Z,33.16
2022-08-25T17:35:42.316Z,32.69
2022-08-25T17:38:11.202Z,32.24
2022-08-25T17:40:39.811Z,31.85
2022-08-25T17:43:09.125Z,31.47
2022-08-25T17:45:39.300Z,31.10
2022-08-25T17:48:09.189Z,30.74
2022-08-25T17:50:39.374Z,30.40
2022-08-25T17:53:13.543Z,30.09
2022-08-25T17:55:48.710Z,29.79
2022-08-25T17:58:18.886Z,29.52
2022-08-25T18:00:49.544Z,29.28
2022-08-25T18:03:27.240Z,29.06
2022-08-25T18:05:58.773Z,28.81
2022-08-25T18:08:32.248Z,28.59
2022-08-25T18:11:05.050Z,28.38
2022-08-25T18:13:33.265Z,28.39
2022-08-25T18:16:01.254Z,29.19
2022-08-25T18:18:31.819Z,29.91
2022-08-25T18:20:59.812Z,30.20
2022-08-25T18:23:27.996Z,29.77
2022-08-25T18:26:01.074Z,29.24
2022-08-25T18:28:30.179Z,28.82
2022-08-25T18:30:58.138Z,28.48
2022-08-25T18:33:26.361Z,28.20
2022-08-25T18:35:58.262Z,28.20
2022-08-25T18:38:52.645Z,29.05
2022-08-25T18:41:27.770Z,29.79
2022-08-25T18:43:57.978Z,29.98
2022-08-25T18:46:25.990Z,29.48
2022-08-25T18:48:55.769Z,28.87
2022-08-25T18:51:24.857Z,28.40
2022-08-25T18:53:54.572Z,28.03
2022-08-25T18:56:27.394Z,28.00
2022-08-25T18:58:55.791Z,28.75
2022-08-25T19:01:23.965Z,29.35
2022-08-25T19:03:52.367Z,29.56
2022-08-25T19:06:20.974Z,29.11
2022-08-25T19:08:49.152Z,28.53
2022-08-25T19:11:22.241Z,28.06
2022-08-25T19:13:52.035Z,27.71
2022-08-25T19:16:40.894Z,27.69
2022-08-25T19:19:14.919Z,28.59
2022-08-25T19:21:43.464Z,29.21
2022-08-25T19:24:13.523Z,29.56
2022-08-25T19:26:42.962Z,29.64
2022-08-25T19:29:17.570Z,29.10
2022-08-25T19:31:49.157Z,28.51
2022-08-25T19:34:25.372Z,28.07
2022-08-25T19:36:58.074Z,27.73
2022-08-25T19:39:27.430Z,27.69
2022-08-25T19:41:56.898Z,28.52
2022-08-25T19:44:27.129Z,29.21
2022-08-25T19:46:58.305Z,29.47
2022-08-25T19:49:31.484Z,29.00
2022-08-25T19:52:06.958Z,28.43
2022-08-25T19:54:45.767Z,27.96
2022-08-25T19:57:28.148Z,27.64
2022-08-25T20:00:17.781Z,27.65
2022-08-25T20:02:46.537Z,28.54
2022-08-25T20:05:15.820Z,29.15
2022-08-25T20:07:52.670Z,29.34
2022-08-25T20:10:22.105Z,28.84
2022-08-25T20:12:50.070Z,28.25
2022-08-25T20:15:18.580Z,27.79
2022-08-25T20:17:46.635Z,27.65
2022-08-25T20:20:19.011Z,28.34
2022-08-25T20:22:48.409Z,28.97
2022-08-25T20:25:26.634Z,29.33
2022-08-25T20:28:04.340Z,29.40
2022-08-25T20:30:32.703Z,28.81
2022-08-25T20:33:01.251Z,28.21
2022-08-25T20:35:29.407Z,27.75
2022-08-25T20:37:58.533Z,27.61
2022-08-25T20:40:28.130Z,28.37
2022-08-25T20:43:01.969Z,29.11
2022-08-25T20:45:31.146Z,29.40
2022-08-25T20:48:00.256Z,28.79
2022-08-25T20:50:28.275Z,28.08
2022-08-25T20:52:58.683Z,27.50
2022-08-25T20:55:27.982Z,27.34
2022-08-25T20:57:56.592Z,28.13
2022-08-25T21:00:25.927Z,28.71
2022-08-25T21:02:55.071Z,29.01
2022-08-25T21:05:23.181Z,29.07
2022-08-25T21:07:51.238Z,28.47
2022-08-25T21:10:19.225Z,27.80
2022-08-25T21:12:49.091Z,27.28
2022-08-25T21:15:21.299Z,27.15
2022-08-25T21:17:50.959Z,27.97
2022-08-25T21:20:18.909Z,28.69
2022-08-25T21:22:46.972Z,28.97
2022-08-25T21:25:15.143Z,28.45
2022-08-25T21:27:43.882Z,27.77
2022-08-25T21:30:12.800Z,27.24
2022-08-25T21:32:40.705Z,27.06
2022-08-25T21:35:23.214Z,27.89
2022-08-25T21:37:53.537Z,28.60
2022-08-25T21:40:22.871Z,28.87
2022-08-25T21:42:51.907Z,28.26
2022-08-25T21:45:21.691Z,27.53
2022-08-25T21:47:50.096Z,26.97
2022-08-25T21:50:20.819Z,26.82
2022-08-25T21:52:48.666Z,27.50
2022-08-25T21:55:23.517Z,28.18
2022-08-25T21:57:51.543Z,28.60
2022-08-25T22:00:21.372Z,28.70
2022-08-25T22:02:50.968Z,28.07
2022-08-25T22:05:18.909Z,27.32
2022-08-25T22:07:46.794Z,26.94
2022-08-25T22:10:17.975Z,27.46
2022-08-25T22:12:47.304Z,28.02
2022-08-25T22:15:18.917Z,28.44
2022-08-25T22:17:48.077Z,28.51
2022-08-25T22:20:18.209Z,27.86
2022-08-25T22:22:46.299Z,27.18
2022-08-25T22:25:14.435Z,26.82
2022-08-25T22:27:42.891Z,27.43
2022-08-25T22:30:11.840Z,28.08
2022-08-25T22:32:39.744Z,28.46
2022-08-25T22:35:08.991Z,28.47
2022-08-25T22:37:38.190Z,27.79
2022-08-25T22:40:08.594Z,27.08
2022-08-25T22:42:36.563Z,26.50
2022-08-25T22:45:04.819Z,26.28
2022-08-25T22:47:32.769Z,26.96
2022-08-25T22:50:00.954Z,27.63
2022-08-25T22:52:33.630Z,28.04
2022-08-25T22:55:03.252Z,28.12
2022-08-25T22:57:31.577Z,27.46
2022-08-25T22:59:59.496Z,26.74
2022-08-25T23:02:30.279Z,26.40
2022-08-25T23:04:58.484Z,27.00
2022-08-25T23:07:29.523Z,27.54
2022-08-25T23:10:03.300Z,27.83
2022-08-25T23:12:32.062Z,27.89
2022-08-25T23:15:00.690Z,27.25
2022-08-25T23:17:31.596Z,26.53
2022-08-25T23:19:59.520Z,26.21
2022-08-25T23:22:27.468Z,26.86
2022-08-25T23:24:56.391Z,27.51
2022-08-25T23:27:25.018Z,27.88
2022-08-25T23:29:52.971Z,28.14
2022-08-25T23:32:20.841Z,28.12
2022-08-25T23:34:48.879Z,27.40
2022-08-25T23:37:18.720Z,26.67
2022-08-25T23:39:49.364Z,26.28
2022-08-25T23:42:19.943Z,26.87
2022-08-25T23:44:48.953Z,27.46
2022-08-25T23:47:18.229Z,27.77
2022-08-25T23:49:48.048Z,27.77
2022-08-25T23:52:17.723Z,27.08
2022-08-25T23:54:46.211Z,26.33
2022-08-25T23:57:15.121Z,25.99
2022-08-25T23:59:43.854Z,26.64
